Pagina principale
METAR-TAF:

METAR-TAF

Aeroporti :

Gorgan, Iran

latitudine: 36-49N, longitudine: 054-28E, altezza: 155 m

Osservazione

Il bollettino è stato emesso 34 minuti fa, alle 16:00 UTC
Vento 6 kt da sud/sud-ovest
Temperature 23°C
Umidità 89%
Pressione 1016 hPa
Visibilità: 4000 m
Nubi sparse ad un'altezza di 2000 ft
Nuvoloso ad un'altezza di 8000 ft
foschia

METAR: OING 051600Z 21006KT 4000 BR SCT020 BKN080 23/21 Q1016

Ora: 21:04 (16:34 UTC)


TAF: mancante

Osservazioni e previsioni meteorologiche di più di 4000 aeroporti (messaggi METAR e TAF).

Le stazioni disponibili sono rappresentate dai dischi gialli e rossi sulla carta.

Puntare il mouse per vedere il nome della stazione.

Clicca sopra per visualizzare le osservazioni e previsioni meteorologiche.

Per cambiare la mappa : fare clic sui pulsanti verdi con una croce nera per ingrandire, il pulsante verde con un trattino per diminuire, o sulla freccia verde per le mappe adiacenti.


METAR-TAF: